Pagrindinis puslapis
METAR-TAF:

METAR-TAF

Oro uostai :

Trolhetanas-Venešborgas, Švedija

platuma: 58-19N, ilguma: 012-21E, Aukštis: 41 m

Dabartinis oras

Ataskaita buvo paskelbta 11 minutes, ne 06:50 UTC
Vėjas 10 kt iš Šiaurės
Temperatūra -5°C
Drėgmė 73%
Slėgis 992 hPa
Matomumas 10 km arba daugiau

METAR: ESGT 020650Z AUTO 36010KT 9999 NCD M05/M09 Q0992

Laikas: 08:01 (07:01 UTC)

Prognozė

Ataskaita buvo paskelbta 31 minutes, ne 06:30 UTC
Prognozė galioja nuo 02 metu 07 UTC su 02 metu 15 UTC
Vėjas 10 kt iš Šiaurės
Matomumas 10 km arba daugiau
Su prošvaistėmis ne aukštis 2000 ft

TAF: ESGT 020630Z 0207/0215 35010KT 9999 BKN020

Orai ataskaitas ir orų prognozės (METAR, TAF).

turimą stotys yra geltonos ir raudonos taškus žemėlapyje.

Perkelti pele per norėdami pamatyti stoties vardą.

Tada spustelėkite, norėdami matyti oro stebėjimo ir prognozės.

Norėdami pakeisti žemėlapį: spustelėkite ant žalios mygtukų su juodo kryžiaus žemyn,; žalią mygtuką su brūkšneliu, jei norite nutolinti; arba žalių rodyklių gretimoms žemėlapius.


METAR-TAF: